Time,TemperatureF,DewpointF,PressureIn,WindDirection,WindDirectionDegrees,WindSpeedMPH,WindSpeedGustMPH,Humidity,HourlyPrecipIn,Conditions,Clouds,dailyrainin,SoftwareType,DateUTC
2013-09-29 00:12:00,56.3,49.2,30.05,ESE,112,3.2,-999.0,77,-99.99,,,0.00,Acu-Link.com,2013-09-29 04:12:00,
2013-09-29 00:27:00,56.1,49.0,30.05,ESE,112,1.7,-999.0,77,-99.99,,,0.00,Acu-Link.com,2013-09-29 04:27:00,
2013-09-29 00:42:00,55.9,48.8,30.05,ESE,112,2.7,-999.0,77,-99.99,,,0.00,Acu-Link.com,2013-09-29 04:42:00,
2013-09-29 00:57:00,56.1,49.0,30.04,South,180,1.7,-999.0,77,-99.99,,,0.00,Acu-Link.com,2013-09-29 04:57:00,
2013-09-29 01:13:00,55.8,48.7,30.04,SW,225,2.2,-999.0,77,-99.99,,,0.00,Acu-Link.com,2013-09-29 05:13:00,
2013-09-29 01:28:00,55.2,48.8,30.04,WSW,247,1.7,-999.0,79,-99.99,,,0.00,Acu-Link.com,2013-09-29 05:28:00,
2013-09-29 01:43:00,54.7,48.7,30.05,SW,225,3.2,-999.0,80,-99.99,,,0.00,Acu-Link.com,2013-09-29 05:43:00,
2013-09-29 01:59:00,54.7,48.7,30.04,SSW,202,0.0,-999.0,80,-99.99,,,0.00,Acu-Link.com,2013-09-29 05:59:00,
2013-09-29 02:14:00,54.7,48.7,30.04,SSW,202,0.0,-999.0,80,-99.99,,,0.00,Acu-Link.com,2013-09-29 06:14:00,
2013-09-29 02:29:00,54.5,48.5,30.03,ESE,112,0.0,-999.0,80,-99.99,,,0.00,Acu-Link.com,2013-09-29 06:29:00,
2013-09-29 02:44:00,54.1,48.4,30.03,South,180,0.0,-999.0,81,-99.99,,,0.00,Acu-Link.com,2013-09-29 06:44:00,
2013-09-29 03:00:00,53.8,48.4,30.03,SSW,202,1.7,-999.0,82,-99.99,,,0.00,Acu-Link.com,2013-09-29 07:00:00,
2013-09-29 03:15:00,54.5,49.1,30.03,ENE,67,0.0,-999.0,82,-99.99,,,0.00,Acu-Link.com,2013-09-29 07:15:00,
2013-09-29 03:30:00,54.0,48.6,30.02,South,180,1.1,-999.0,82,-99.99,,,0.00,Acu-Link.com,2013-09-29 07:30:00,
2013-09-29 03:46:00,54.0,48.6,30.02,SW,225,1.7,-999.0,82,-99.99,,,0.00,Acu-Link.com,2013-09-29 07:46:00,
2013-09-29 04:01:00,53.8,48.4,30.03,SW,225,1.7,-999.0,82,-99.99,,,0.00,Acu-Link.com,2013-09-29 08:01:00,
2013-09-29 04:16:00,53.6,48.6,30.03,WSW,247,0.0,-999.0,83,-99.99,,,0.00,Acu-Link.com,2013-09-29 08:16:00,
2013-09-29 04:31:00,53.6,48.6,30.02,SW,225,2.7,-999.0,83,-99.99,,,0.00,Acu-Link.com,2013-09-29 08:31:00,
2013-09-29 04:46:00,54.5,48.8,30.02,SW,225,3.2,-999.0,81,-99.99,,,0.00,Acu-Link.com,2013-09-29 08:46:00,
2013-09-29 05:01:00,54.5,48.8,30.02,SW,225,1.7,-999.0,81,-99.99,,,0.00,Acu-Link.com,2013-09-29 09:01:00,
2013-09-29 05:17:00,54.9,49.2,30.02,SSW,202,2.7,-999.0,81,-99.99,,,0.00,Acu-Link.com,2013-09-29 09:17:00,
2013-09-29 05:32:00,55.0,48.9,30.02,SSE,157,1.1,-999.0,80,-99.99,,,0.00,Acu-Link.com,2013-09-29 09:32:00,
2013-09-29 05:47:00,55.4,49.3,30.02,South,180,1.7,-999.0,80,-99.99,,,0.00,Acu-Link.com,2013-09-29 09:47:00,
2013-09-29 06:04:00,55.4,49.3,30.02,SW,225,4.2,-999.0,80,-99.99,,,0.00,Acu-Link.com,2013-09-29 10:04:00,
2013-09-29 06:19:00,55.8,49.7,30.02,SSE,157,1.1,-999.0,80,-99.99,,,0.00,Acu-Link.com,2013-09-29 10:19:00,
2013-09-29 06:34:00,55.9,49.5,30.02,SSW,202,0.0,-999.0,79,-99.99,,,0.00,Acu-Link.com,2013-09-29 10:34:00,
2013-09-29 06:49:00,56.1,49.3,30.02,SW,225,5.3,-999.0,78,-99.99,,,0.00,Acu-Link.com,2013-09-29 10:49:00,
2013-09-29 07:04:00,56.3,49.5,30.02,SSW,202,1.7,-999.0,78,-99.99,,,0.00,Acu-Link.com,2013-09-29 11:04:00,
2013-09-29 07:20:00,56.3,49.5,30.02,South,180,0.0,-999.0,78,-99.99,,,0.00,Acu-Link.com,2013-09-29 11:20:00,
2013-09-29 07:35:00,56.3,49.5,30.02,WSW,247,1.7,-999.0,78,-99.99,,,0.00,Acu-Link.com,2013-09-29 11:35:00,
2013-09-29 07:51:00,56.3,49.5,30.02,West,270,1.1,-999.0,78,-99.99,,,0.00,Acu-Link.com,2013-09-29 11:51:00,
2013-09-29 08:06:00,56.3,49.5,30.03,SE,135,1.7,-999.0,78,-99.99,,,0.00,Acu-Link.com,2013-09-29 12:06:00,
2013-09-29 08:21:00,56.3,49.5,30.03,SSW,202,0.0,-999.0,78,-99.99,,,0.00,Acu-Link.com,2013-09-29 12:21:00,
2013-09-29 08:36:00,56.3,49.9,30.03,South,180,0.0,-999.0,79,-99.99,,,0.00,Acu-Link.com,2013-09-29 12:36:00,
2013-09-29 08:51:00,59.7,51.0,30.03,SW,225,2.2,-999.0,73,-99.99,,,0.00,Acu-Link.com,2013-09-29 12:51:00,
2013-09-29 09:07:00,61.9,52.4,30.03,SW,225,2.2,-999.0,71,-99.99,,,0.00,Acu-Link.com,2013-09-29 13:07:00,
2013-09-29 09:22:00,62.6,51.9,30.03,SSW,202,3.7,-999.0,68,-99.99,,,0.00,Acu-Link.com,2013-09-29 13:22:00,
2013-09-29 09:37:00,63.7,52.9,30.03,WSW,247,1.7,-999.0,68,-99.99,,,0.00,Acu-Link.com,2013-09-29 13:37:00,
2013-09-29 09:53:00,63.0,52.7,30.03,North,0,1.7,-999.0,69,-99.99,,,0.00,Acu-Link.com,2013-09-29 13:53:00,
2013-09-29 10:08:00,66.7,54.6,30.02,SSE,157,5.3,-999.0,65,-99.99,,,0.00,Acu-Link.com,2013-09-29 14:08:00,
2013-09-29 10:23:00,67.6,54.5,30.02,SE,135,1.1,-999.0,63,-99.99,,,0.00,Acu-Link.com,2013-09-29 14:23:00,
2013-09-29 10:38:00,68.4,54.4,30.02,ESE,112,3.7,-999.0,61,-99.99,,,0.00,Acu-Link.com,2013-09-29 14:38:00,
2013-09-29 10:53:00,70.0,55.9,30.01,SW,225,2.2,-999.0,61,-99.99,,,0.00,Acu-Link.com,2013-09-29 14:53:00,
2013-09-29 11:09:00,71.4,56.3,30.01,SW,225,4.7,-999.0,59,-99.99,,,0.00,Acu-Link.com,2013-09-29 15:09:00,
2013-09-29 11:24:00,69.8,55.3,30.01,SW,225,7.3,-999.0,60,-99.99,,,0.00,Acu-Link.com,2013-09-29 15:24:00,
2013-09-29 11:39:00,71.4,55.8,30.00,East,90,2.2,-999.0,58,-99.99,,,0.00,Acu-Link.com,2013-09-29 15:39:00,
2013-09-29 11:55:00,71.2,56.1,30.00,SW,225,1.1,-999.0,59,-99.99,,,0.00,Acu-Link.com,2013-09-29 15:55:00,
2013-09-29 12:10:00,72.5,56.4,29.99,South,180,2.2,-999.0,57,-99.99,,,0.00,Acu-Link.com,2013-09-29 16:10:00,
2013-09-29 12:25:00,71.2,57.1,29.99,SW,225,2.7,-999.0,61,-99.99,,,0.00,Acu-Link.com,2013-09-29 16:25:00,
2013-09-29 12:40:00,72.5,57.8,29.99,SSW,202,1.7,-999.0,60,-99.99,,,0.00,Acu-Link.com,2013-09-29 16:40:00,
2013-09-29 12:55:00,73.6,57.4,29.99,SSE,157,2.2,-999.0,57,-99.99,,,0.00,Acu-Link.com,2013-09-29 16:55:00,
2013-09-29 13:11:00,72.3,57.6,29.97,West,270,4.2,-999.0,60,-99.99,,,0.00,Acu-Link.com,2013-09-29 17:11:00,
2013-09-29 13:26:00,75.2,57.9,29.97,SW,225,3.7,-999.0,55,-99.99,,,0.00,Acu-Link.com,2013-09-29 17:26:00,
2013-09-29 13:41:00,73.8,57.6,29.97,South,180,2.2,-999.0,57,-99.99,,,0.00,Acu-Link.com,2013-09-29 17:41:00,
2013-09-29 13:56:00,72.7,57.5,29.96,SSE,157,1.7,-999.0,59,-99.99,,,0.00,Acu-Link.com,2013-09-29 17:56:00,
2013-09-29 14:11:00,70.7,56.1,29.95,NNW,337,0.0,-999.0,60,-99.99,,,0.00,Acu-Link.com,2013-09-29 18:11:00,
2013-09-29 14:26:00,74.1,56.9,29.95,SSW,202,2.7,-999.0,55,-99.99,,,0.00,Acu-Link.com,2013-09-29 18:26:00,
2013-09-29 14:42:00,73.0,56.4,29.95,South,180,1.1,-999.0,56,-99.99,,,0.00,Acu-Link.com,2013-09-29 18:42:00,
2013-09-29 14:57:00,73.6,56.9,29.94,East,90,3.7,-999.0,56,-99.99,,,0.00,Acu-Link.com,2013-09-29 18:57:00,
2013-09-29 15:12:00,75.2,58.4,29.93,SW,225,1.7,-999.0,56,-99.99,,,0.00,Acu-Link.com,2013-09-29 19:12:00,
2013-09-29 15:27:00,73.9,56.2,29.93,WSW,247,4.2,-999.0,54,-99.99,,,0.00,Acu-Link.com,2013-09-29 19:27:00,
2013-09-29 15:42:00,76.5,57.5,29.93,SSW,202,1.7,-999.0,52,-99.99,,,0.00,Acu-Link.com,2013-09-29 19:42:00,
2013-09-29 15:57:00,74.3,57.1,29.92,SSW,202,4.2,-999.0,55,-99.99,,,0.00,Acu-Link.com,2013-09-29 19:57:00,
2013-09-29 16:12:00,74.7,56.9,29.92,East,90,4.2,-999.0,54,-99.99,,,0.00,Acu-Link.com,2013-09-29 20:12:00,
2013-09-29 16:28:00,73.8,56.1,29.92,WSW,247,1.7,-999.0,54,-99.99,,,0.00,Acu-Link.com,2013-09-29 20:28:00,
2013-09-29 16:43:00,73.4,56.2,29.91,ENE,67,1.1,-999.0,55,-99.99,,,0.00,Acu-Link.com,2013-09-29 20:43:00,
2013-09-29 16:58:00,75.0,57.2,29.91,SSE,157,0.0,-999.0,54,-99.99,,,0.00,Acu-Link.com,2013-09-29 20:58:00,
2013-09-29 17:13:00,77.5,56.8,29.91,ESE,112,1.7,-999.0,49,-99.99,,,0.00,Acu-Link.com,2013-09-29 21:13:00,
2013-09-29 17:29:00,76.3,56.8,29.91,East,90,2.7,-999.0,51,-99.99,,,0.00,Acu-Link.com,2013-09-29 21:29:00,
2013-09-29 17:44:00,74.5,56.2,29.91,SE,135,3.2,-999.0,53,-99.99,,,0.00,Acu-Link.com,2013-09-29 21:44:00,
2013-09-29 17:59:00,73.2,56.5,29.91,East,90,1.7,-999.0,56,-99.99,,,0.00,Acu-Link.com,2013-09-29 21:59:00,
2013-09-29 18:15:00,72.3,56.2,29.91,SE,135,1.7,-999.0,57,-99.99,,,0.00,Acu-Link.com,2013-09-29 22:15:00,
2013-09-29 18:30:00,69.3,57.0,29.90,ESE,112,6.3,-999.0,65,-99.99,,,0.00,Acu-Link.com,2013-09-29 22:30:00,
2013-09-29 18:45:00,67.1,55.4,29.90,SSE,157,4.2,-999.0,66,-99.99,,,0.00,Acu-Link.com,2013-09-29 22:45:00,
2013-09-29 19:00:00,66.0,55.1,29.91,East,90,1.7,-999.0,68,-99.99,,,0.00,Acu-Link.com,2013-09-29 23:00:00,
2013-09-29 19:15:00,65.1,54.3,29.91,ESE,112,1.7,-999.0,68,-99.99,,,0.00,Acu-Link.com,2013-09-29 23:15:00,
2013-09-29 19:30:00,64.4,54.0,29.91,East,90,0.0,-999.0,69,-99.99,,,0.00,Acu-Link.com,2013-09-29 23:30:00,
2013-09-29 19:46:00,63.7,54.1,29.91,ESE,112,3.2,-999.0,71,-99.99,,,0.00,Acu-Link.com,2013-09-29 23:46:00,
2013-09-29 20:01:00,63.3,53.7,29.92,South,180,0.0,-999.0,71,-99.99,,,0.00,Acu-Link.com,2013-09-30 00:01:00,
2013-09-29 20:16:00,62.8,54.0,29.92,SW,225,0.0,-999.0,73,-99.99,,,0.00,Acu-Link.com,2013-09-30 00:16:00,
2013-09-29 20:32:00,62.6,53.8,29.93,SSE,157,0.0,-999.0,73,-99.99,,,0.00,Acu-Link.com,2013-09-30 00:32:00,
2013-09-29 20:47:00,62.4,54.0,29.93,ESE,112,0.0,-999.0,74,-99.99,,,0.00,Acu-Link.com,2013-09-30 00:47:00,
2013-09-29 21:02:00,62.4,54.0,29.93,ENE,67,0.0,-999.0,74,-99.99,,,0.00,Acu-Link.com,2013-09-30 01:02:00,
2013-09-29 21:17:00,62.4,54.0,29.93,ESE,112,0.0,-999.0,74,-99.99,,,0.00,Acu-Link.com,2013-09-30 01:17:00,
2013-09-29 21:33:00,62.1,54.1,29.93,East,90,0.0,-999.0,75,-99.99,,,0.00,Acu-Link.com,2013-09-30 01:33:00,
2013-09-29 21:48:00,61.9,54.2,29.93,SE,135,2.2,-999.0,76,-99.99,,,0.00,Acu-Link.com,2013-09-30 01:48:00,
2013-09-29 22:03:00,61.9,53.9,29.92,ESE,112,2.7,-999.0,75,-99.99,,,0.00,Acu-Link.com,2013-09-30 02:03:00,
2013-09-29 22:18:00,61.9,53.9,29.92,SE,135,2.7,-999.0,75,-99.99,,,0.00,Acu-Link.com,2013-09-30 02:18:00,